Weather at Muara Badak Pujangan Airport

Public forecast

Using degrees Celsius for public forecast. Weather courtesy of forecast.io.

Closest aviation weather report (METAR) to Muara Badak Pujangan Airport

Closest report is Sultan Aji Muhamad Sulaiman Airport, 65.7 nm (121.7 km) SSW. Retrieved 2021/11/27 12:00 UTC (2 hours ago):

WALL 271200Z 05001KT 9000 FEW018CB SCT02026/26 Q1008 RMK CB TO SW

Closest aviation forecast (TAF) to Muara Badak Pujangan Airport

Closest forecast is Aji Pangeran Tumenggung Pranoto International Airport, 10.8 nm (20.0 km) WSW. Retrieved 2021/11/27 12:00 UTC (2 hours ago):

TAF WALS 271100Z 2712/2724 26007KT 8000 SCT015 BECMG 2715/2717 FEW015CB SCT015 TEMPO 2718/2722 5000 TSRA FEW014CB BKN015